sensor_id;sensor_type;location;lat;lon;timestamp;P1;durP1;ratioP1;P2;durP2;ratioP2
68923;SDS011;55961;52.156;20.942;2022-08-03T00:00:04;21.25;;;18.58;;
68923;SDS011;55961;52.156;20.942;2022-08-03T00:02:51;21.00;;;17.93;;
68923;SDS011;55961;52.156;20.942;2022-08-03T00:05:17;22.77;;;18.58;;
68923;SDS011;55961;52.156;20.942;2022-08-03T00:07:43;20.33;;;18.17;;
68923;SDS011;55961;52.156;20.942;2022-08-03T00:10:09;19.87;;;17.73;;
68923;SDS011;55961;52.156;20.942;2022-08-03T00:12:35;21.27;;;18.25;;
68923;SDS011;55961;52.156;20.942;2022-08-03T00:15:01;21.20;;;17.67;;
68923;SDS011;55961;52.156;20.942;2022-08-03T00:17:27;19.83;;;17.80;;
68923;SDS011;55961;52.156;20.942;2022-08-03T00:19:53;20.45;;;18.08;;
68923;SDS011;55961;52.156;20.942;2022-08-03T00:22:18;20.50;;;17.52;;
68923;SDS011;55961;52.156;20.942;2022-08-03T00:24:44;19.97;;;17.53;;
68923;SDS011;55961;52.156;20.942;2022-08-03T00:27:10;19.77;;;17.67;;
68923;SDS011;55961;52.156;20.942;2022-08-03T00:29:36;20.67;;;18.48;;
68923;SDS011;55961;52.156;20.942;2022-08-03T00:32:02;18.90;;;16.90;;
68923;SDS011;55961;52.156;20.942;2022-08-03T00:34:28;18.77;;;16.77;;
68923;SDS011;55961;52.156;20.942;2022-08-03T00:36:55;19.88;;;17.60;;
68923;SDS011;55961;52.156;20.942;2022-08-03T00:39:20;19.90;;;16.77;;
68923;SDS011;55961;52.156;20.942;2022-08-03T00:41:46;20.80;;;16.85;;
68923;SDS011;55961;52.156;20.942;2022-08-03T00:44:13;21.42;;;17.02;;
68923;SDS011;55961;52.156;20.942;2022-08-03T00:46:38;19.05;;;16.23;;
68923;SDS011;55961;52.156;20.942;2022-08-03T00:49:04;21.20;;;16.90;;
68923;SDS011;55961;52.156;20.942;2022-08-03T00:51:30;20.05;;;17.92;;
68923;SDS011;55961;52.156;20.942;2022-08-03T00:53:57;20.02;;;17.15;;
68923;SDS011;55961;52.156;20.942;2022-08-03T00:56:23;19.10;;;16.92;;
68923;SDS011;55961;52.156;20.942;2022-08-03T00:58:50;18.87;;;16.87;;
68923;SDS011;55961;52.156;20.942;2022-08-03T01:01:20;19.50;;;17.30;;
68923;SDS011;55961;52.156;20.942;2022-08-03T01:03:46;21.63;;;17.67;;
68923;SDS011;55961;52.156;20.942;2022-08-03T01:06:16;18.88;;;16.80;;
68923;SDS011;55961;52.156;20.942;2022-08-03T01:09:18;22.33;;;16.67;;
68923;SDS011;55961;52.156;20.942;2022-08-03T01:22:44;18.83;;;16.87;;
68923;SDS011;55961;52.156;20.942;2022-08-03T01:25:33;21.13;;;16.65;;
68923;SDS011;55961;52.156;20.942;2022-08-03T01:31:07;21.42;;;16.85;;
68923;SDS011;55961;52.156;20.942;2022-08-03T01:33:42;19.20;;;16.92;;
68923;SDS011;55961;52.156;20.942;2022-08-03T01:36:13;19.10;;;16.57;;
68923;SDS011;55961;52.156;20.942;2022-08-03T01:38:52;19.67;;;16.23;;
68923;SDS011;55961;52.156;20.942;2022-08-03T01:41:20;21.67;;;16.67;;
68923;SDS011;55961;52.156;20.942;2022-08-03T01:43:53;18.27;;;16.20;;
68923;SDS011;55961;52.156;20.942;2022-08-03T01:46:24;19.45;;;16.00;;
68923;SDS011;55961;52.156;20.942;2022-08-03T01:48:50;20.87;;;16.03;;
68923;SDS011;55961;52.156;20.942;2022-08-03T01:51:17;17.98;;;16.08;;
68923;SDS011;55961;52.156;20.942;2022-08-03T01:53:44;19.85;;;15.90;;
68923;SDS011;55961;52.156;20.942;2022-08-03T01:56:13;20.58;;;15.95;;
68923;SDS011;55961;52.156;20.942;2022-08-03T01:58:41;17.27;;;14.60;;
68923;SDS011;55961;52.156;20.942;2022-08-03T02:01:09;20.77;;;15.60;;
68923;SDS011;55961;52.156;20.942;2022-08-03T02:03:38;18.92;;;15.88;;
68923;SDS011;55961;52.156;20.942;2022-08-03T02:06:07;18.52;;;15.52;;
68923;SDS011;55961;52.156;20.942;2022-08-03T02:08:36;18.65;;;15.93;;
68923;SDS011;55961;52.156;20.942;2022-08-03T02:11:07;21.15;;;17.20;;
68923;SDS011;55961;52.156;20.942;2022-08-03T02:13:33;21.53;;;17.43;;
68923;SDS011;55961;52.156;20.942;2022-08-03T02:16:00;19.40;;;17.30;;
68923;SDS011;55961;52.156;20.942;2022-08-03T02:18:28;20.52;;;17.13;;
68923;SDS011;55961;52.156;20.942;2022-08-03T02:20:56;21.30;;;18.05;;
68923;SDS011;55961;52.156;20.942;2022-08-03T02:23:29;22.13;;;17.13;;
68923;SDS011;55961;52.156;20.942;2022-08-03T02:25:59;20.15;;;15.82;;
68923;SDS011;55961;52.156;20.942;2022-08-03T02:28:31;17.23;;;15.07;;
68923;SDS011;55961;52.156;20.942;2022-08-03T02:31:01;17.98;;;14.27;;
68923;SDS011;55961;52.156;20.942;2022-08-03T02:33:32;15.35;;;13.75;;
68923;SDS011;55961;52.156;20.942;2022-08-03T02:36:01;18.23;;;14.67;;
68923;SDS011;55961;52.156;20.942;2022-08-03T02:38:33;20.40;;;14.57;;
68923;SDS011;55961;52.156;20.942;2022-08-03T02:41:03;18.95;;;15.05;;
68923;SDS011;55961;52.156;20.942;2022-08-03T02:43:34;18.88;;;16.02;;
68923;SDS011;55961;52.156;20.942;2022-08-03T02:46:01;20.75;;;16.05;;
68923;SDS011;55961;52.156;20.942;2022-08-03T02:48:28;18.80;;;14.50;;
68923;SDS011;55961;52.156;20.942;2022-08-03T02:50:57;16.85;;;14.60;;
68923;SDS011;55961;52.156;20.942;2022-08-03T02:53:25;20.80;;;14.88;;
68923;SDS011;55961;52.156;20.942;2022-08-03T02:55:52;16.90;;;14.80;;
68923;SDS011;55961;52.156;20.942;2022-08-03T02:58:21;23.58;;;14.70;;
68923;SDS011;55961;52.156;20.942;2022-08-03T03:00:49;18.20;;;14.57;;
68923;SDS011;55961;52.156;20.942;2022-08-03T03:03:16;20.88;;;13.82;;
68923;SDS011;55961;52.156;20.942;2022-08-03T03:05:42;17.05;;;15.10;;
68923;SDS011;55961;52.156;20.942;2022-08-03T03:08:13;16.85;;;14.50;;
68923;SDS011;55961;52.156;20.942;2022-08-03T03:10:44;19.02;;;13.43;;
68923;SDS011;55961;52.156;20.942;2022-08-03T03:13:10;16.70;;;13.87;;
68923;SDS011;55961;52.156;20.942;2022-08-03T03:15:39;15.90;;;13.98;;
68923;SDS011;55961;52.156;20.942;2022-08-03T03:18:06;16.02;;;13.63;;
68923;SDS011;55961;52.156;20.942;2022-08-03T03:20:34;18.48;;;13.30;;
68923;SDS011;55961;52.156;20.942;2022-08-03T03:23:02;17.10;;;14.93;;
68923;SDS011;55961;52.156;20.942;2022-08-03T03:25:30;20.27;;;14.17;;
68923;SDS011;55961;52.156;20.942;2022-08-03T03:27:57;18.65;;;14.07;;
68923;SDS011;55961;52.156;20.942;2022-08-03T03:30:24;19.67;;;13.75;;
68923;SDS011;55961;52.156;20.942;2022-08-03T03:32:51;18.08;;;14.10;;
68923;SDS011;55961;52.156;20.942;2022-08-03T03:35:17;15.40;;;13.80;;
68923;SDS011;55961;52.156;20.942;2022-08-03T03:37:43;22.23;;;14.30;;
68923;SDS011;55961;52.156;20.942;2022-08-03T03:40:10;19.92;;;16.05;;
68923;SDS011;55961;52.156;20.942;2022-08-03T03:42:36;19.60;;;14.43;;
68923;SDS011;55961;52.156;20.942;2022-08-03T03:45:06;20.35;;;14.02;;
68923;SDS011;55961;52.156;20.942;2022-08-03T03:47:33;18.05;;;13.85;;
68923;SDS011;55961;52.156;20.942;2022-08-03T03:50:00;19.67;;;14.97;;
68923;SDS011;55961;52.156;20.942;2022-08-03T03:52:27;17.13;;;14.52;;
68923;SDS011;55961;52.156;20.942;2022-08-03T03:54:53;18.02;;;14.27;;
68923;SDS011;55961;52.156;20.942;2022-08-03T03:57:19;19.02;;;14.52;;
68923;SDS011;55961;52.156;20.942;2022-08-03T03:59:45;20.73;;;15.93;;
68923;SDS011;55961;52.156;20.942;2022-08-03T04:02:12;23.38;;;16.08;;
68923;SDS011;55961;52.156;20.942;2022-08-03T04:04:37;18.25;;;15.00;;
68923;SDS011;55961;52.156;20.942;2022-08-03T04:07:22;17.33;;;15.05;;
68923;SDS011;55961;52.156;20.942;2022-08-03T04:10:26;19.33;;;15.33;;
68923;SDS011;55961;52.156;20.942;2022-08-03T04:13:14;22.08;;;16.48;;
68923;SDS011;55961;52.156;20.942;2022-08-03T04:15:43;21.83;;;16.30;;
68923;SDS011;55961;52.156;20.942;2022-08-03T04:18:12;19.92;;;16.95;;
68923;SDS011;55961;52.156;20.942;2022-08-03T04:20:39;19.25;;;16.25;;
68923;SDS011;55961;52.156;20.942;2022-08-03T04:23:11;18.13;;;14.63;;
68923;SDS011;55961;52.156;20.942;2022-08-03T04:25:38;20.10;;;15.65;;
68923;SDS011;55961;52.156;20.942;2022-08-03T04:28:06;19.30;;;15.30;;
68923;SDS011;55961;52.156;20.942;2022-08-03T04:30:32;22.08;;;16.48;;
68923;SDS011;55961;52.156;20.942;2022-08-03T04:33:01;22.23;;;16.63;;
68923;SDS011;55961;52.156;20.942;2022-08-03T04:35:28;17.50;;;15.17;;
68923;SDS011;55961;52.156;20.942;2022-08-03T04:37:58;19.88;;;16.52;;
68923;SDS011;55961;52.156;20.942;2022-08-03T04:40:32;19.48;;;16.10;;
68923;SDS011;55961;52.156;20.942;2022-08-03T04:42:59;20.17;;;16.30;;
68923;SDS011;55961;52.156;20.942;2022-08-03T04:45:29;19.17;;;16.02;;
68923;SDS011;55961;52.156;20.942;2022-08-03T04:47:58;21.40;;;16.00;;
68923;SDS011;55961;52.156;20.942;2022-08-03T04:50:25;18.38;;;15.13;;
68923;SDS011;55961;52.156;20.942;2022-08-03T04:52:52;20.23;;;15.82;;
68923;SDS011;55961;52.156;20.942;2022-08-03T04:55:28;21.33;;;16.58;;
68923;SDS011;55961;52.156;20.942;2022-08-03T04:57:55;21.33;;;16.55;;
68923;SDS011;55961;52.156;20.942;2022-08-03T05:00:22;18.00;;;15.37;;
68923;SDS011;55961;52.156;20.942;2022-08-03T05:02:48;19.98;;;16.75;;
68923;SDS011;55961;52.156;20.942;2022-08-03T05:05:14;20.58;;;16.67;;
68923;SDS011;55961;52.156;20.942;2022-08-03T05:07:42;19.70;;;16.48;;
68923;SDS011;55961;52.156;20.942;2022-08-03T05:10:10;19.70;;;16.45;;
68923;SDS011;55961;52.156;20.942;2022-08-03T05:12:36;21.70;;;16.90;;
68923;SDS011;55961;52.156;20.942;2022-08-03T05:15:03;19.98;;;16.17;;
68923;SDS011;55961;52.156;20.942;2022-08-03T05:17:30;22.20;;;16.73;;
68923;SDS011;55961;52.156;20.942;2022-08-03T05:19:56;21.73;;;17.27;;
68923;SDS011;55961;52.156;20.942;2022-08-03T05:22:22;20.17;;;16.90;;
68923;SDS011;55961;52.156;20.942;2022-08-03T05:24:48;20.35;;;16.63;;
68923;SDS011;55961;52.156;20.942;2022-08-03T05:27:14;21.10;;;17.23;;
68923;SDS011;55961;52.156;20.942;2022-08-03T05:29:46;18.33;;;16.23;;
68923;SDS011;55961;52.156;20.942;2022-08-03T05:32:13;20.00;;;16.50;;
68923;SDS011;55961;52.156;20.942;2022-08-03T05:34:40;18.00;;;16.07;;
68923;SDS011;55961;52.156;20.942;2022-08-03T05:37:06;20.27;;;16.08;;
68923;SDS011;55961;52.156;20.942;2022-08-03T05:39:32;19.50;;;16.33;;
68923;SDS011;55961;52.156;20.942;2022-08-03T05:41:59;21.40;;;16.92;;
68923;SDS011;55961;52.156;20.942;2022-08-03T05:44:25;21.13;;;16.40;;
68923;SDS011;55961;52.156;20.942;2022-08-03T05:46:51;20.07;;;17.17;;
68923;SDS011;55961;52.156;20.942;2022-08-03T05:49:17;20.20;;;16.95;;
68923;SDS011;55961;52.156;20.942;2022-08-03T05:51:44;21.70;;;16.95;;
68923;SDS011;55961;52.156;20.942;2022-08-03T05:54:10;19.55;;;16.58;;
68923;SDS011;55961;52.156;20.942;2022-08-03T05:56:36;21.13;;;16.70;;
68923;SDS011;55961;52.156;20.942;2022-08-03T05:59:05;25.13;;;18.03;;
68923;SDS011;55961;52.156;20.942;2022-08-03T06:01:30;21.05;;;17.35;;
68923;SDS011;55961;52.156;20.942;2022-08-03T06:03:57;26.23;;;18.75;;
68923;SDS011;55961;52.156;20.942;2022-08-03T06:06:23;22.80;;;17.27;;
68923;SDS011;55961;52.156;20.942;2022-08-03T06:08:49;24.83;;;16.90;;
68923;SDS011;55961;52.156;20.942;2022-08-03T06:11:15;25.10;;;18.05;;
68923;SDS011;55961;52.156;20.942;2022-08-03T06:13:41;29.23;;;17.97;;
68923;SDS011;55961;52.156;20.942;2022-08-03T06:16:08;20.77;;;16.85;;
68923;SDS011;55961;52.156;20.942;2022-08-03T06:18:34;21.98;;;18.30;;
68923;SDS011;55961;52.156;20.942;2022-08-03T06:21:01;22.33;;;18.33;;
68923;SDS011;55961;52.156;20.942;2022-08-03T06:23:27;22.23;;;18.02;;
68923;SDS011;55961;52.156;20.942;2022-08-03T06:25:53;22.57;;;17.77;;
68923;SDS011;55961;52.156;20.942;2022-08-03T06:28:19;25.23;;;18.90;;
68923;SDS011;55961;52.156;20.942;2022-08-03T06:30:45;22.13;;;17.75;;
68923;SDS011;55961;52.156;20.942;2022-08-03T06:33:11;20.75;;;18.30;;
68923;SDS011;55961;52.156;20.942;2022-08-03T06:35:37;21.67;;;17.63;;
68923;SDS011;55961;52.156;20.942;2022-08-03T06:38:02;21.25;;;17.27;;
68923;SDS011;55961;52.156;20.942;2022-08-03T06:40:29;21.27;;;17.13;;
68923;SDS011;55961;52.156;20.942;2022-08-03T06:42:59;23.80;;;17.03;;
68923;SDS011;55961;52.156;20.942;2022-08-03T06:45:27;21.17;;;16.90;;
68923;SDS011;55961;52.156;20.942;2022-08-03T06:48:03;19.67;;;15.50;;
68923;SDS011;55961;52.156;20.942;2022-08-03T06:50:30;19.27;;;15.57;;
68923;SDS011;55961;52.156;20.942;2022-08-03T06:52:58;23.58;;;15.93;;
68923;SDS011;55961;52.156;20.942;2022-08-03T06:55:24;20.73;;;15.37;;
68923;SDS011;55961;52.156;20.942;2022-08-03T06:57:50;18.27;;;15.13;;
68923;SDS011;55961;52.156;20.942;2022-08-03T07:00:17;23.48;;;15.32;;
68923;SDS011;55961;52.156;20.942;2022-08-03T07:02:43;19.45;;;14.98;;
68923;SDS011;55961;52.156;20.942;2022-08-03T07:05:09;17.35;;;14.00;;
68923;SDS011;55961;52.156;20.942;2022-08-03T07:07:36;19.50;;;13.63;;
68923;SDS011;55961;52.156;20.942;2022-08-03T07:10:02;19.60;;;15.73;;
68923;SDS011;55961;52.156;20.942;2022-08-03T07:12:30;19.08;;;14.02;;
68923;SDS011;55961;52.156;20.942;2022-08-03T07:14:57;15.75;;;13.85;;
68923;SDS011;55961;52.156;20.942;2022-08-03T07:17:24;17.20;;;12.90;;
68923;SDS011;55961;52.156;20.942;2022-08-03T07:19:50;22.27;;;12.80;;
68923;SDS011;55961;52.156;20.942;2022-08-03T07:22:16;17.20;;;12.60;;
68923;SDS011;55961;52.156;20.942;2022-08-03T07:24:42;17.45;;;12.88;;
68923;SDS011;55961;52.156;20.942;2022-08-03T07:27:09;17.13;;;12.83;;
68923;SDS011;55961;52.156;20.942;2022-08-03T07:29:35;15.73;;;11.45;;
68923;SDS011;55961;52.156;20.942;2022-08-03T07:32:04;16.00;;;11.05;;
68923;SDS011;55961;52.156;20.942;2022-08-03T07:34:30;19.63;;;10.68;;
68923;SDS011;55961;52.156;20.942;2022-08-03T07:36:56;13.65;;;11.55;;
68923;SDS011;55961;52.156;20.942;2022-08-03T07:39:22;15.80;;;11.20;;
68923;SDS011;55961;52.156;20.942;2022-08-03T07:41:48;17.00;;;10.80;;
68923;SDS011;55961;52.156;20.942;2022-08-03T07:44:18;12.88;;;9.95;;
68923;SDS011;55961;52.156;20.942;2022-08-03T07:46:45;14.82;;;11.02;;
68923;SDS011;55961;52.156;20.942;2022-08-03T07:49:11;14.80;;;10.80;;
68923;SDS011;55961;52.156;20.942;2022-08-03T07:51:38;16.52;;;11.35;;
68923;SDS011;55961;52.156;20.942;2022-08-03T07:54:09;13.15;;;11.02;;
68923;SDS011;55961;52.156;20.942;2022-08-03T07:56:39;14.45;;;10.95;;
68923;SDS011;55961;52.156;20.942;2022-08-03T07:59:11;14.68;;;10.43;;
68923;SDS011;55961;52.156;20.942;2022-08-03T08:01:39;13.37;;;8.83;;
68923;SDS011;55961;52.156;20.942;2022-08-03T08:04:05;11.93;;;8.05;;
68923;SDS011;55961;52.156;20.942;2022-08-03T08:06:31;12.77;;;8.95;;
68923;SDS011;55961;52.156;20.942;2022-08-03T08:08:59;10.02;;;7.40;;
68923;SDS011;55961;52.156;20.942;2022-08-03T08:11:28;9.37;;;6.47;;
68923;SDS011;55961;52.156;20.942;2022-08-03T08:14:03;8.48;;;6.72;;
68923;SDS011;55961;52.156;20.942;2022-08-03T08:16:29;9.48;;;6.05;;
68923;SDS011;55961;52.156;20.942;2022-08-03T08:18:55;9.68;;;6.38;;
68923;SDS011;55961;52.156;20.942;2022-08-03T08:21:22;11.05;;;6.47;;
68923;SDS011;55961;52.156;20.942;2022-08-03T08:23:49;9.13;;;4.80;;
68923;SDS011;55961;52.156;20.942;2022-08-03T08:26:14;9.55;;;4.80;;
68923;SDS011;55961;52.156;20.942;2022-08-03T08:28:40;13.27;;;5.30;;
68923;SDS011;55961;52.156;20.942;2022-08-03T08:31:06;9.33;;;5.20;;
68923;SDS011;55961;52.156;20.942;2022-08-03T08:33:32;9.75;;;5.03;;
68923;SDS011;55961;52.156;20.942;2022-08-03T08:36:02;28.20;;;7.10;;
68923;SDS011;55961;52.156;20.942;2022-08-03T08:38:28;8.38;;;5.13;;
68923;SDS011;55961;52.156;20.942;2022-08-03T08:40:54;6.67;;;4.50;;
68923;SDS011;55961;52.156;20.942;2022-08-03T08:43:21;8.55;;;4.85;;
68923;SDS011;55961;52.156;20.942;2022-08-03T08:45:48;8.45;;;5.00;;
68923;SDS011;55961;52.156;20.942;2022-08-03T08:48:21;8.98;;;5.35;;
68923;SDS011;55961;52.156;20.942;2022-08-03T08:50:53;10.17;;;4.97;;
68923;SDS011;55961;52.156;20.942;2022-08-03T08:53:20;11.50;;;4.78;;
68923;SDS011;55961;52.156;20.942;2022-08-03T08:55:46;9.18;;;5.25;;
68923;SDS011;55961;52.156;20.942;2022-08-03T08:58:14;11.02;;;4.60;;
68923;SDS011;55961;52.156;20.942;2022-08-03T09:00:43;10.73;;;5.28;;
68923;SDS011;55961;52.156;20.942;2022-08-03T09:03:09;8.17;;;5.20;;
68923;SDS011;55961;52.156;20.942;2022-08-03T09:05:36;8.13;;;5.45;;
68923;SDS011;55961;52.156;20.942;2022-08-03T09:08:09;7.75;;;5.20;;
68923;SDS011;55961;52.156;20.942;2022-08-03T09:10:37;7.85;;;4.90;;
68923;SDS011;55961;52.156;20.942;2022-08-03T09:13:03;9.73;;;5.25;;
68923;SDS011;55961;52.156;20.942;2022-08-03T09:15:32;10.93;;;5.90;;
68923;SDS011;55961;52.156;20.942;2022-08-03T09:17:59;8.27;;;5.47;;
68923;SDS011;55961;52.156;20.942;2022-08-03T09:20:28;9.60;;;4.70;;
68923;SDS011;55961;52.156;20.942;2022-08-03T09:22:58;9.27;;;4.65;;
68923;SDS011;55961;52.156;20.942;2022-08-03T09:28:07;7.77;;;5.03;;
68923;SDS011;55961;52.156;20.942;2022-08-03T09:30:36;6.90;;;5.55;;
68923;SDS011;55961;52.156;20.942;2022-08-03T09:33:04;8.23;;;6.22;;
68923;SDS011;55961;52.156;20.942;2022-08-03T09:35:32;9.90;;;5.88;;
68923;SDS011;55961;52.156;20.942;2022-08-03T09:38:08;8.30;;;6.03;;
68923;SDS011;55961;52.156;20.942;2022-08-03T09:40:40;8.60;;;5.53;;
68923;SDS011;55961;52.156;20.942;2022-08-03T09:43:07;8.88;;;4.70;;
68923;SDS011;55961;52.156;20.942;2022-08-03T09:45:34;7.28;;;5.60;;
68923;SDS011;55961;52.156;20.942;2022-08-03T09:50:50;8.57;;;5.30;;
68923;SDS011;55961;52.156;20.942;2022-08-03T09:53:21;9.83;;;5.87;;
68923;SDS011;55961;52.156;20.942;2022-08-03T09:55:49;12.60;;;5.70;;
68923;SDS011;55961;52.156;20.942;2022-08-03T09:58:27;8.25;;;5.78;;
68923;SDS011;55961;52.156;20.942;2022-08-03T10:03:20;11.63;;;5.60;;
68923;SDS011;55961;52.156;20.942;2022-08-03T10:05:47;7.30;;;5.00;;
68923;SDS011;55961;52.156;20.942;2022-08-03T10:08:13;7.65;;;5.15;;
68923;SDS011;55961;52.156;20.942;2022-08-03T10:10:44;6.85;;;4.88;;
68923;SDS011;55961;52.156;20.942;2022-08-03T10:13:14;10.90;;;5.33;;
68923;SDS011;55961;52.156;20.942;2022-08-03T10:15:41;7.40;;;5.15;;
68923;SDS011;55961;52.156;20.942;2022-08-03T10:18:07;8.48;;;5.20;;
68923;SDS011;55961;52.156;20.942;2022-08-03T10:20:36;5.75;;;4.72;;
68923;SDS011;55961;52.156;20.942;2022-08-03T10:23:07;6.07;;;4.93;;
68923;SDS011;55961;52.156;20.942;2022-08-03T10:25:35;6.97;;;4.63;;
68923;SDS011;55961;52.156;20.942;2022-08-03T10:28:04;7.38;;;4.50;;
68923;SDS011;55961;52.156;20.942;2022-08-03T10:30:32;7.15;;;5.15;;
68923;SDS011;55961;52.156;20.942;2022-08-03T10:33:04;7.55;;;5.10;;
68923;SDS011;55961;52.156;20.942;2022-08-03T10:35:33;6.63;;;4.57;;
68923;SDS011;55961;52.156;20.942;2022-08-03T10:38:11;6.00;;;4.57;;
68923;SDS011;55961;52.156;20.942;2022-08-03T10:40:43;5.35;;;4.72;;
68923;SDS011;55961;52.156;20.942;2022-08-03T10:46:09;8.80;;;5.07;;
68923;SDS011;55961;52.156;20.942;2022-08-03T10:48:35;5.72;;;4.88;;
68923;SDS011;55961;52.156;20.942;2022-08-03T10:51:03;6.90;;;4.70;;
68923;SDS011;55961;52.156;20.942;2022-08-03T10:53:37;7.82;;;4.72;;
68923;SDS011;55961;52.156;20.942;2022-08-03T10:56:19;7.07;;;4.95;;
68923;SDS011;55961;52.156;20.942;2022-08-03T10:59:17;6.22;;;4.30;;
68923;SDS011;55961;52.156;20.942;2022-08-03T11:04:19;6.37;;;4.53;;
68923;SDS011;55961;52.156;20.942;2022-08-03T11:06:46;6.32;;;4.78;;
68923;SDS011;55961;52.156;20.942;2022-08-03T11:09:13;5.53;;;4.18;;
68923;SDS011;55961;52.156;20.942;2022-08-03T11:11:41;6.25;;;4.50;;
68923;SDS011;55961;52.156;20.942;2022-08-03T11:14:09;6.60;;;4.60;;
68923;SDS011;55961;52.156;20.942;2022-08-03T11:16:39;8.37;;;4.70;;
68923;SDS011;55961;52.156;20.942;2022-08-03T11:19:13;7.95;;;4.80;;
68923;SDS011;55961;52.156;20.942;2022-08-03T11:25:01;8.73;;;4.50;;
68923;SDS011;55961;52.156;20.942;2022-08-03T11:40:40;7.30;;;4.80;;
68923;SDS011;55961;52.156;20.942;2022-08-03T11:51:01;8.02;;;4.95;;
68923;SDS011;55961;52.156;20.942;2022-08-03T11:53:28;5.72;;;4.78;;
68923;SDS011;55961;52.156;20.942;2022-08-03T11:55:57;7.00;;;5.40;;
68923;SDS011;55961;52.156;20.942;2022-08-03T11:58:23;8.02;;;5.05;;
68923;SDS011;55961;52.156;20.942;2022-08-03T12:00:50;8.63;;;5.28;;
68923;SDS011;55961;52.156;20.942;2022-08-03T12:03:19;9.07;;;5.55;;
68923;SDS011;55961;52.156;20.942;2022-08-03T12:05:47;6.20;;;4.93;;
68923;SDS011;55961;52.156;20.942;2022-08-03T12:08:17;7.00;;;5.23;;
68923;SDS011;55961;52.156;20.942;2022-08-03T12:10:58;8.02;;;5.10;;
68923;SDS011;55961;52.156;20.942;2022-08-03T12:13:26;9.60;;;5.75;;
68923;SDS011;55961;52.156;20.942;2022-08-03T12:16:18;6.75;;;5.20;;
68923;SDS011;55961;52.156;20.942;2022-08-03T12:18:45;8.13;;;5.38;;
68923;SDS011;55961;52.156;20.942;2022-08-03T12:21:21;7.30;;;5.20;;
68923;SDS011;55961;52.156;20.942;2022-08-03T12:23:48;6.50;;;5.50;;
68923;SDS011;55961;52.156;20.942;2022-08-03T12:26:14;7.57;;;5.03;;
68923;SDS011;55961;52.156;20.942;2022-08-03T12:28:48;7.80;;;4.93;;
68923;SDS011;55961;52.156;20.942;2022-08-03T12:31:14;8.35;;;5.75;;
68923;SDS011;55961;52.156;20.942;2022-08-03T12:36:27;6.13;;;5.00;;
68923;SDS011;55961;52.156;20.942;2022-08-03T12:38:56;7.40;;;5.63;;
68923;SDS011;55961;52.156;20.942;2022-08-03T12:41:27;7.30;;;5.45;;
68923;SDS011;55961;52.156;20.942;2022-08-03T12:43:58;6.90;;;5.70;;
68923;SDS011;55961;52.156;20.942;2022-08-03T12:46:28;6.87;;;5.00;;
68923;SDS011;55961;52.156;20.942;2022-08-03T12:49:03;7.40;;;5.50;;
68923;SDS011;55961;52.156;20.942;2022-08-03T12:51:31;8.35;;;6.10;;
68923;SDS011;55961;52.156;20.942;2022-08-03T12:54:02;9.27;;;5.45;;
68923;SDS011;55961;52.156;20.942;2022-08-03T12:56:29;9.70;;;6.18;;
68923;SDS011;55961;52.156;20.942;2022-08-03T12:58:55;6.97;;;6.00;;
68923;SDS011;55961;52.156;20.942;2022-08-03T13:01:21;7.43;;;5.68;;
68923;SDS011;55961;52.156;20.942;2022-08-03T13:03:49;8.82;;;5.72;;
68923;SDS011;55961;52.156;20.942;2022-08-03T13:06:16;6.18;;;5.57;;
68923;SDS011;55961;52.156;20.942;2022-08-03T13:08:44;7.30;;;5.40;;
68923;SDS011;55961;52.156;20.942;2022-08-03T13:11:24;8.10;;;5.90;;
68923;SDS011;55961;52.156;20.942;2022-08-03T13:13:52;9.85;;;5.63;;
68923;SDS011;55961;52.156;20.942;2022-08-03T13:16:19;9.40;;;6.20;;
68923;SDS011;55961;52.156;20.942;2022-08-03T13:18:47;8.80;;;5.55;;
68923;SDS011;55961;52.156;20.942;2022-08-03T13:21:17;7.60;;;5.40;;
68923;SDS011;55961;52.156;20.942;2022-08-03T13:23:44;9.88;;;5.45;;
68923;SDS011;55961;52.156;20.942;2022-08-03T13:26:10;7.35;;;5.82;;
68923;SDS011;55961;52.156;20.942;2022-08-03T13:28:37;8.30;;;5.03;;
68923;SDS011;55961;52.156;20.942;2022-08-03T13:31:04;9.88;;;5.63;;
68923;SDS011;55961;52.156;20.942;2022-08-03T13:33:30;21.53;;;6.27;;
68923;SDS011;55961;52.156;20.942;2022-08-03T13:35:57;7.82;;;5.65;;
68923;SDS011;55961;52.156;20.942;2022-08-03T13:38:22;6.72;;;5.57;;
68923;SDS011;55961;52.156;20.942;2022-08-03T13:40:57;6.63;;;5.32;;
68923;SDS011;55961;52.156;20.942;2022-08-03T13:43:36;8.83;;;5.37;;
68923;SDS011;55961;52.156;20.942;2022-08-03T13:46:09;7.38;;;5.55;;
68923;SDS011;55961;52.156;20.942;2022-08-03T13:48:42;10.13;;;5.45;;
68923;SDS011;55961;52.156;20.942;2022-08-03T13:51:08;7.97;;;4.80;;
68923;SDS011;55961;52.156;20.942;2022-08-03T13:53:34;6.83;;;5.27;;
68923;SDS011;55961;52.156;20.942;2022-08-03T13:56:00;6.32;;;5.03;;
68923;SDS011;55961;52.156;20.942;2022-08-03T13:58:26;6.80;;;5.27;;
68923;SDS011;55961;52.156;20.942;2022-08-03T14:00:51;6.50;;;5.28;;
68923;SDS011;55961;52.156;20.942;2022-08-03T14:03:17;6.75;;;5.13;;
68923;SDS011;55961;52.156;20.942;2022-08-03T14:05:43;7.10;;;5.23;;
68923;SDS011;55961;52.156;20.942;2022-08-03T14:08:09;6.50;;;4.97;;
68923;SDS011;55961;52.156;20.942;2022-08-03T14:10:37;5.97;;;4.72;;
68923;SDS011;55961;52.156;20.942;2022-08-03T14:13:05;6.55;;;4.93;;
68923;SDS011;55961;52.156;20.942;2022-08-03T14:15:31;5.93;;;4.90;;
68923;SDS011;55961;52.156;20.942;2022-08-03T14:17:57;9.05;;;4.90;;
68923;SDS011;55961;52.156;20.942;2022-08-03T14:20:23;6.57;;;5.28;;
68923;SDS011;55961;52.156;20.942;2022-08-03T14:22:49;7.40;;;5.30;;
68923;SDS011;55961;52.156;20.942;2022-08-03T14:25:15;7.50;;;5.32;;
68923;SDS011;55961;52.156;20.942;2022-08-03T14:27:40;6.53;;;5.40;;
68923;SDS011;55961;52.156;20.942;2022-08-03T14:30:06;7.13;;;5.33;;
68923;SDS011;55961;52.156;20.942;2022-08-03T14:32:33;6.03;;;5.32;;
68923;SDS011;55961;52.156;20.942;2022-08-03T14:34:58;7.82;;;5.38;;
68923;SDS011;55961;52.156;20.942;2022-08-03T14:37:24;8.50;;;5.60;;
68923;SDS011;55961;52.156;20.942;2022-08-03T14:39:50;9.27;;;5.45;;
68923;SDS011;55961;52.156;20.942;2022-08-03T14:42:16;7.90;;;5.18;;
68923;SDS011;55961;52.156;20.942;2022-08-03T14:44:42;8.30;;;5.60;;
68923;SDS011;55961;52.156;20.942;2022-08-03T14:47:08;8.77;;;5.78;;
68923;SDS011;55961;52.156;20.942;2022-08-03T14:49:34;7.85;;;5.53;;
68923;SDS011;55961;52.156;20.942;2022-08-03T14:51:59;7.67;;;5.90;;
68923;SDS011;55961;52.156;20.942;2022-08-03T14:54:25;8.93;;;5.57;;
68923;SDS011;55961;52.156;20.942;2022-08-03T14:56:54;6.43;;;5.35;;
68923;SDS011;55961;52.156;20.942;2022-08-03T14:59:20;8.13;;;5.70;;
68923;SDS011;55961;52.156;20.942;2022-08-03T15:01:46;6.80;;;6.18;;
68923;SDS011;55961;52.156;20.942;2022-08-03T15:04:12;7.05;;;5.15;;
68923;SDS011;55961;52.156;20.942;2022-08-03T15:06:38;10.43;;;5.30;;
68923;SDS011;55961;52.156;20.942;2022-08-03T15:09:04;7.63;;;5.20;;
68923;SDS011;55961;52.156;20.942;2022-08-03T15:11:30;7.85;;;5.07;;
68923;SDS011;55961;52.156;20.942;2022-08-03T15:13:55;6.13;;;5.23;;
68923;SDS011;55961;52.156;20.942;2022-08-03T15:16:21;6.82;;;5.13;;
68923;SDS011;55961;52.156;20.942;2022-08-03T15:18:47;6.72;;;5.25;;
68923;SDS011;55961;52.156;20.942;2022-08-03T15:21:13;6.50;;;5.40;;